Time;durP1;ratioP1;P1;durP2;ratioP2;P2;SDS_P1;SDS_P2;PMS_P1;PMS_P2;Temp;Humidity;BMP_temperature;BMP_pressure;BME280_temperature;BME280_humidity;BME280_pressure;Samples;Min_cycle;Max_cycle;Signal;HPM_P1;HPM_P2
2024/02/27 00:01:53;;;;;;;5.55;3.38;;;;;;;11.50;56.37;98965.88;4149250;28;20037;-70
2024/02/27 00:03:53;;;;;;;5.80;3.13;;;;;;;11.49;56.10;98969.56;4149473;28;20446;-71
2024/02/27 00:05:54;;;;;;;6.55;3.70;;;;;;;11.47;56.14;98964.38;4149762;28;20076;-70
2024/02/27 00:07:54;;;;;;;6.25;3.42;;;;;;;11.53;55.87;98968.16;4150061;28;20474;-70
2024/02/27 00:09:57;;;;;;;5.85;3.65;;;;;;;11.50;56.07;98973.91;4153852;28;20486;-71
2024/02/27 00:11:57;;;;;;;8.43;4.05;;;;;;;11.51;55.84;98971.03;4166939;28;20054;-71
2024/02/27 00:13:57;;;;;;;7.60;4.00;;;;;;;11.23;56.41;98968.03;4166195;28;20033;-73
2024/02/27 00:15:58;;;;;;;8.00;4.45;;;;;;;11.06;56.87;98973.44;4166357;28;20013;-70
2024/02/27 00:17:58;;;;;;;6.82;4.32;;;;;;;11.08;56.67;98974.13;4166185;28;20021;-72
2024/02/27 00:19:59;;;;;;;7.30;4.50;;;;;;;11.12;56.36;98974.59;4167193;28;20086;-72
2024/02/27 00:21:59;;;;;;;7.18;4.38;;;;;;;10.98;56.55;98972.66;4164319;28;20021;-73
2024/02/27 00:23:59;;;;;;;7.60;4.55;;;;;;;11.13;56.24;98975.44;4167441;28;20037;-72
2024/02/27 00:26:00;;;;;;;7.60;5.13;;;;;;;10.96;56.41;98975.50;4150025;28;20105;-72
2024/02/27 00:28:01;;;;;;;7.60;4.65;;;;;;;10.92;56.43;98975.00;4149327;28;20034;-70
2024/02/27 00:30:02;;;;;;;;;;;;;;;10.92;56.20;98971.53;4149733;28;20364;-71
2024/02/27 00:32:03;;;;;;;6.93;4.20;;;;;;;10.91;56.11;98973.34;4147574;28;19916;-71
2024/02/27 00:34:03;;;;;;;7.88;4.65;;;;;;;10.67;56.38;98976.97;4149458;28;20045;-71
2024/02/27 00:36:04;;;;;;;7.63;5.03;;;;;;;10.62;56.45;98987.31;4149776;28;20109;-70
2024/02/27 00:38:04;;;;;;;9.65;5.22;;;;;;;10.73;56.15;98991.44;4164315;28;20026;-70
2024/02/27 00:40:05;;;;;;;8.05;4.88;;;;;;;10.54;56.47;98987.34;4159967;28;20024;-70
2024/02/27 00:42:06;;;;;;;7.20;4.50;;;;;;;10.65;56.08;98995.00;4148925;28;20117;-70
2024/02/27 00:44:07;;;;;;;8.52;4.70;;;;;;;10.82;55.70;98995.75;4147855;28;20088;-70
2024/02/27 00:46:07;;;;;;;7.00;4.68;;;;;;;10.99;55.46;99007.25;4148412;28;20033;-69
2024/02/27 00:48:09;;;;;;;6.97;4.60;;;;;;;11.12;55.24;99005.88;4147353;28;20109;-69
2024/02/27 00:50:10;;;;;;;6.88;4.25;;;;;;;11.19;54.82;99001.47;4148673;28;20217;-71
2024/02/27 00:52:10;;;;;;;6.78;4.63;;;;;;;10.93;55.38;99002.59;4148445;28;20770;-70
2024/02/27 00:54:11;;;;;;;8.05;4.95;;;;;;;11.00;55.15;99003.56;4148671;28;20108;-71
2024/02/27 00:56:11;;;;;;;9.27;4.72;;;;;;;10.91;55.20;98996.59;4148414;28;20037;-70
2024/02/27 00:58:12;;;;;;;7.80;4.82;;;;;;;10.75;55.37;98998.31;4148522;28;20367;-70
2024/02/27 01:00:13;;;;;;;6.93;4.40;;;;;;;10.88;54.85;99005.78;4148749;28;20517;-70
2024/02/27 01:02:13;;;;;;;8.05;4.50;;;;;;;10.92;54.82;99011.63;4148312;28;20038;-71
2024/02/27 01:04:14;;;;;;;8.45;4.97;;;;;;;10.97;54.68;99003.09;4148424;28;20569;-70
2024/02/27 01:06:14;;;;;;;7.88;4.80;;;;;;;10.99;54.82;99001.91;4148709;28;20482;-70
2024/02/27 01:08:15;;;;;;;8.65;5.03;;;;;;;11.00;54.59;99016.13;4148792;28;20155;-71
2024/02/27 01:10:16;;;;;;;8.23;4.85;;;;;;;11.02;54.32;99014.94;4148580;28;20056;-69
2024/02/27 01:12:16;;;;;;;7.20;4.63;;;;;;;11.05;54.23;99019.91;4148591;28;20022;-71
2024/02/27 01:14:17;;;;;;;8.57;5.35;;;;;;;11.00;54.29;99024.16;4148215;28;20030;-69
2024/02/27 01:16:17;;;;;;;8.30;5.38;;;;;;;10.77;54.53;99025.69;4148506;28;20033;-70
2024/02/27 01:18:18;;;;;;;10.45;5.63;;;;;;;10.71;54.70;99014.88;4148311;28;20052;-69
2024/02/27 01:20:18;;;;;;;9.68;5.82;;;;;;;10.51;54.78;99017.91;4148392;28;20025;-70
2024/02/27 01:22:30;;;;;;;11.13;6.60;;;;;;;10.42;54.88;99022.41;4147423;28;20075;-70
2024/02/27 01:24:30;;;;;;;10.00;6.32;;;;;;;10.59;54.67;99025.06;4146076;28;20140;-70
2024/02/27 01:26:31;;;;;;;10.95;5.70;;;;;;;10.71;54.42;99018.34;4148025;28;20022;-71
2024/02/27 01:28:32;;;;;;;9.00;5.53;;;;;;;10.45;55.03;99021.25;4147642;28;20033;-70
2024/02/27 01:30:33;;;;;;;8.23;5.15;;;;;;;10.38;55.08;99025.59;4148103;28;20028;-70
2024/02/27 01:32:33;;;;;;;9.10;5.53;;;;;;;10.40;55.15;99028.94;4147646;28;20426;-69
2024/02/27 01:34:34;;;;;;;11.65;6.20;;;;;;;10.42;55.07;99021.59;4146905;28;20124;-69
2024/02/27 01:36:34;;;;;;;10.60;6.65;;;;;;;10.26;55.55;99014.41;4147854;28;20034;-69
2024/02/27 01:38:35;;;;;;;10.57;5.77;;;;;;;10.17;55.43;99016.22;4148290;28;20111;-70
2024/02/27 01:40:35;;;;;;;11.23;6.60;;;;;;;10.32;55.21;99024.41;4148223;28;20430;-69
2024/02/27 01:42:36;;;;;;;10.03;6.03;;;;;;;10.35;55.13;99021.41;4147713;28;20088;-69
2024/02/27 01:44:37;;;;;;;;;;;;;;;10.26;55.52;99017.06;4147021;28;20293;-71
2024/02/27 01:46:37;;;;;;;7.83;5.50;;;;;;;10.47;54.81;99018.41;4147726;28;19963;-71
2024/02/27 01:48:38;;;;;;;8.95;5.53;;;;;;;10.43;55.16;99024.09;4146643;28;20660;-71
2024/02/27 01:50:42;;;;;;;11.27;6.22;;;;;;;10.47;55.18;99013.06;4147726;28;20109;-70
2024/02/27 01:52:44;;;;;;;9.70;6.03;;;;;;;10.30;55.87;99007.69;4147776;28;20034;-69
2024/02/27 01:54:48;;;;;;;11.50;6.07;;;;;;;10.21;56.43;99006.88;4147325;28;20037;-70
2024/02/27 01:56:49;;;;;;;10.88;7.07;;;;;;;10.20;56.81;99005.22;4148778;28;20026;-71
2024/02/27 01:58:50;;;;;;;11.55;6.93;;;;;;;10.21;56.95;99011.38;4147605;28;20026;-70
2024/02/27 02:00:51;;;;;;;12.10;6.18;;;;;;;10.38;56.69;99012.25;4148105;28;20022;-70
2024/02/27 02:02:52;;;;;;;10.75;6.57;;;;;;;10.25;57.04;99008.19;4147418;28;20096;-71
2024/02/27 02:04:52;;;;;;;10.93;6.43;;;;;;;10.16;57.53;99003.88;4147917;28;20049;-70
2024/02/27 02:06:53;;;;;;;9.87;6.97;;;;;;;10.26;57.26;98998.38;4147890;28;20049;-70
2024/02/27 02:08:54;;;;;;;11.27;6.65;;;;;;;10.26;57.61;99006.38;4148629;28;20269;-69
2024/02/27 02:10:54;;;;;;;;;;;;;;;10.14;58.19;99003.22;4148841;28;20394;-70
2024/02/27 02:12:56;;;;;;;11.00;7.13;;;;;;;9.93;58.76;99011.72;4154281;28;19909;-70
2024/02/27 02:14:57;;;;;;;12.40;7.82;;;;;;;10.09;58.66;99011.75;4157198;28;20386;-69
2024/02/27 02:16:57;;;;;;;16.55;7.68;;;;;;;10.11;58.56;99014.22;4153926;28;20033;-71
2024/02/27 02:18:58;;;;;;;12.97;7.37;;;;;;;10.12;58.67;99016.72;4152833;28;20033;-71
2024/02/27 02:21:00;;;;;;;11.80;6.82;;;;;;;10.03;59.04;99012.38;4151240;28;20361;-71
2024/02/27 02:23:01;;;;;;;11.02;7.25;;;;;;;10.05;59.03;99015.72;4151227;28;20033;-71
2024/02/27 02:25:02;;;;;;;;;;;;;;;9.95;59.55;99010.56;4151475;28;20061;-71
2024/02/27 02:27:03;;;;;;;11.20;7.57;;;;;;;9.99;59.28;99013.75;4147473;28;19909;-71
2024/02/27 02:29:05;;;;;;;11.50;7.25;;;;;;;9.98;59.32;99020.06;4147409;28;20111;-71
2024/02/27 02:31:05;;;;;;;10.73;7.55;;;;;;;9.95;59.52;99021.25;4147208;28;20033;-71
2024/02/27 02:33:07;;;;;;;11.30;7.55;;;;;;;10.09;59.22;99011.75;4147322;28;20463;-70
2024/02/27 02:35:07;;;;;;;9.73;6.82;;;;;;;10.13;58.93;99012.25;4147232;28;20034;-70
2024/02/27 02:37:08;;;;;;;10.02;6.32;;;;;;;10.17;58.98;99018.91;4146876;28;20033;-70
2024/02/27 02:39:09;;;;;;;10.13;6.75;;;;;;;10.11;59.22;99031.06;4139602;28;20052;-71
2024/02/27 02:41:09;;;;;;;13.77;6.93;;;;;;;10.04;59.35;99034.59;4138703;28;20022;-71
2024/02/27 02:43:09;;;;;;;12.00;7.10;;;;;;;10.11;59.28;99033.75;4145219;28;20112;-70
2024/02/27 02:45:11;;;;;;;11.98;7.82;;;;;;;10.11;59.60;99033.75;4141501;28;20265;-71
2024/02/27 02:47:12;;;;;;;;;;;;;;;9.91;60.16;99035.09;4135224;28;20068;-71
2024/02/27 02:49:13;;;;;;;12.73;8.50;;;;;;;10.01;59.86;99038.44;4158390;28;19917;-70
2024/02/27 02:51:13;;;;;;;15.57;7.90;;;;;;;10.03;59.93;99041.75;4163953;28;20478;-71
2024/02/27 02:53:15;;;;;;;14.23;8.60;;;;;;;9.94;60.30;99038.25;4164703;28;20026;-71
2024/02/27 02:55:16;;;;;;;13.40;8.35;;;;;;;10.11;59.80;99039.09;4145856;28;20041;-72
2024/02/27 02:57:16;;;;;;;12.68;7.90;;;;;;;10.10;59.83;99040.13;4144620;28;20046;-70
2024/02/27 02:59:17;;;;;;;11.77;8.40;;;;;;;10.10;60.03;99049.94;4131472;28;20126;-72
2024/02/27 03:01:17;;;;;;;11.88;8.18;;;;;;;10.07;59.90;99052.94;4130622;28;20292;-70
2024/02/27 03:03:18;;;;;;;13.75;8.00;;;;;;;10.20;59.71;99041.78;4130523;28;20597;-71
2024/02/27 03:05:18;;;;;;;12.70;8.50;;;;;;;10.12;60.15;99047.94;4130649;28;20077;-70
2024/02/27 03:07:19;;;;;;;15.27;9.43;;;;;;;10.09;60.24;99058.94;4130673;28;20034;-69
2024/02/27 03:09:19;;;;;;;13.88;10.20;;;;;;;10.07;60.38;99055.59;4131307;28;20085;-70
2024/02/27 03:11:19;;;;;;;15.75;9.82;;;;;;;9.98;60.63;99049.44;4130383;28;20027;-71
2024/02/27 03:13:20;;;;;;;14.57;10.20;;;;;;;10.01;60.80;99067.81;4131230;28;20029;-70
2024/02/27 03:15:20;;;;;;;14.35;9.52;;;;;;;10.17;60.35;99066.97;4131003;28;20368;-70
2024/02/27 03:17:21;;;;;;;14.18;10.15;;;;;;;10.12;60.42;99074.66;4132192;28;20034;-70
2024/02/27 03:19:21;;;;;;;15.77;10.63;;;;;;;10.17;60.26;99079.50;4132358;28;20026;-71
2024/02/27 03:21:22;;;;;;;14.00;10.05;;;;;;;10.27;59.93;99082.84;4130356;28;20266;-71
2024/02/27 03:23:22;;;;;;;12.65;8.40;;;;;;;10.40;59.61;99083.19;4130482;28;20034;-70
2024/02/27 03:25:23;;;;;;;14.00;9.48;;;;;;;10.41;59.55;99086.72;4129441;28;20395;-70
2024/02/27 03:27:24;;;;;;;15.50;10.00;;;;;;;10.27;60.01;99088.19;4130746;28;20608;-69
2024/02/27 03:29:24;;;;;;;18.95;12.60;;;;;;;10.12;60.64;99091.50;4130215;28;20395;-71
2024/02/27 03:31:25;;;;;;;16.67;12.38;;;;;;;9.89;61.33;99091.31;4130141;28;20046;-70
2024/02/27 03:33:25;;;;;;;19.08;13.68;;;;;;;9.87;61.74;99100.47;4130352;28;20504;-70
2024/02/27 03:35:26;;;;;;;22.73;14.20;;;;;;;9.93;61.58;99102.47;4130359;28;20057;-71
2024/02/27 03:37:26;;;;;;;19.00;13.43;;;;;;;10.02;61.34;99098.81;4130335;28;20054;-70
2024/02/27 03:39:26;;;;;;;20.67;13.73;;;;;;;9.95;61.48;99106.69;4130410;28;20026;-70
2024/02/27 03:41:27;;;;;;;21.55;15.05;;;;;;;9.84;61.94;99118.47;4130063;28;20458;-70
2024/02/27 03:43:28;;;;;;;20.30;13.23;;;;;;;9.98;61.66;99116.19;4130374;28;20023;-71
2024/02/27 03:45:29;;;;;;;20.55;13.57;;;;;;;9.98;61.40;99126.88;4130199;28;20039;-69
2024/02/27 03:47:30;;;;;;;18.58;13.40;;;;;;;10.06;61.58;99118.06;4132146;28;20474;-70
2024/02/27 03:49:30;;;;;;;19.70;13.98;;;;;;;10.07;61.17;99123.22;4133543;28;20038;-70
2024/02/27 03:51:30;;;;;;;21.03;14.30;;;;;;;9.90;61.74;99118.84;4129917;28;20534;-71
2024/02/27 03:53:32;;;;;;;18.20;14.13;;;;;;;9.70;62.60;99129.78;4130374;28;20036;-71
2024/02/27 03:55:32;;;;;;;25.48;16.25;;;;;;;9.58;62.85;99128.41;4130696;28;20023;-70
2024/02/27 03:57:32;;;;;;;23.40;16.27;;;;;;;9.69;62.70;99130.78;4130458;28;20026;-70
2024/02/27 03:59:33;;;;;;;20.77;14.32;;;;;;;9.68;62.65;99131.78;4130016;28;20081;-71
2024/02/27 04:01:33;;;;;;;22.33;15.80;;;;;;;9.68;62.58;99135.28;4129935;28;20054;-71
2024/02/27 04:03:33;;;;;;;21.25;15.48;;;;;;;9.57;62.87;99140.06;4130195;28;20092;-71
2024/02/27 04:05:34;;;;;;;23.27;15.33;;;;;;;9.52;63.14;99143.22;4131101;28;20038;-69
2024/02/27 04:07:34;;;;;;;21.57;15.17;;;;;;;9.71;62.65;99143.97;4133781;28;20269;-71
2024/02/27 04:09:35;;;;;;;21.60;14.13;;;;;;;9.64;62.45;99146.44;4132855;28;20630;-70
2024/02/27 04:11:35;;;;;;;21.77;14.45;;;;;;;9.66;62.75;99147.13;4132702;28;20050;-71
2024/02/27 04:13:35;;;;;;;23.00;15.87;;;;;;;9.52;63.06;99157.41;4132981;28;20105;-71
2024/02/27 04:15:36;;;;;;;20.03;14.03;;;;;;;9.54;62.74;99156.44;4132863;28;20269;-69
2024/02/27 04:17:36;;;;;;;25.90;15.90;;;;;;;9.55;63.04;99158.91;4133199;28;20026;-71
2024/02/27 04:19:37;;;;;;;19.15;15.00;;;;;;;9.55;62.82;99153.59;4132572;28;20117;-70
2024/02/27 04:21:37;;;;;;;20.37;14.40;;;;;;;9.56;62.70;99154.41;4132583;28;20026;-69
2024/02/27 04:23:38;;;;;;;22.93;15.60;;;;;;;9.53;63.15;99166.25;4132956;28;20616;-69
2024/02/27 04:25:38;;;;;;;23.52;15.27;;;;;;;9.50;63.02;99170.06;4132566;28;20454;-70
2024/02/27 04:27:39;;;;;;;22.08;15.70;;;;;;;9.39;63.37;99159.69;4133564;28;20248;-70
2024/02/27 04:29:42;;;;;;;22.48;15.43;;;;;;;9.40;63.52;99155.19;4134401;28;20514;-69
2024/02/27 04:31:46;;;;;;;22.60;15.25;;;;;;;9.41;63.40;99156.84;4132911;28;20036;-68
2024/02/27 04:33:47;;;;;;;21.08;15.10;;;;;;;9.50;63.27;99170.06;4133490;28;20018;-69
2024/02/27 04:35:47;;;;;;;23.65;15.00;;;;;;;9.43;63.34;99169.03;4133093;28;20153;-70
2024/02/27 04:37:48;;;;;;;21.25;15.25;;;;;;;9.39;63.37;99174.84;4133336;28;20038;-70
2024/02/27 04:39:48;;;;;;;21.88;16.20;;;;;;;9.32;63.50;99183.47;4133238;28;20034;-69
2024/02/27 04:41:49;;;;;;;23.85;14.95;;;;;;;9.29;63.78;99181.13;4132809;28;20517;-69
2024/02/27 04:43:49;;;;;;;21.30;14.88;;;;;;;9.44;63.10;99184.06;4132884;28;20639;-69
2024/02/27 04:45:49;;;;;;;22.47;15.20;;;;;;;9.35;63.33;99185.00;4133084;28;20093;-69
2024/02/27 04:47:50;;;;;;;20.88;14.48;;;;;;;9.21;63.62;99192.59;4133152;28;20630;-69
2024/02/27 04:49:50;;;;;;;18.67;13.90;;;;;;;9.33;63.63;99190.47;4132729;28;20034;-70
2024/02/27 04:51:51;;;;;;;24.77;16.83;;;;;;;9.19;63.63;99199.06;4132217;28;20034;-70
2024/02/27 04:53:51;;;;;;;25.67;16.48;;;;;;;9.24;63.57;99195.94;4133129;28;20053;-70
2024/02/27 04:55:51;;;;;;;22.55;15.73;;;;;;;9.17;63.73;99196.53;4132497;28;20394;-70
2024/02/27 04:57:52;;;;;;;23.02;16.63;;;;;;;9.14;63.82;99198.69;4133001;28;20026;-69
2024/02/27 04:59:53;;;;;;;24.70;15.73;;;;;;;9.09;63.91;99201.00;4133174;28;20545;-70
2024/02/27 05:01:54;;;;;;;22.85;16.60;;;;;;;9.11;63.88;99199.84;4131867;28;20041;-70
2024/02/27 05:03:55;;;;;;;22.60;14.65;;;;;;;9.07;63.93;99203.81;4131923;28;20043;-69
2024/02/27 05:05:56;;;;;;;24.73;15.43;;;;;;;9.10;63.88;99203.50;4132215;28;20026;-71
2024/02/27 05:07:56;;;;;;;24.55;16.80;;;;;;;8.93;64.68;99199.88;4132745;28;20018;-70
2024/02/27 05:09:57;;;;;;;21.45;15.93;;;;;;;9.00;64.44;99208.94;4132451;28;20027;-70
2024/02/27 05:11:57;;;;;;;21.90;15.38;;;;;;;8.95;64.47;99210.41;4130520;28;20034;-71
2024/02/27 05:13:58;;;;;;;24.05;14.55;;;;;;;9.01;64.26;99205.28;4132211;28;20026;-71
2024/02/27 05:15:58;;;;;;;22.63;15.45;;;;;;;8.99;64.48;99217.94;4132750;28;20026;-70
2024/02/27 05:17:58;;;;;;;21.85;15.68;;;;;;;9.06;64.15;99218.16;4141795;28;20054;-72
2024/02/27 05:19:59;;;;;;;22.25;15.65;;;;;;;9.11;63.88;99225.69;4148919;28;20060;-70
2024/02/27 05:21:59;;;;;;;22.13;15.23;;;;;;;9.08;63.97;99229.47;4148776;28;20027;-71
2024/02/27 05:23:59;;;;;;;22.58;15.00;;;;;;;9.09;63.88;99228.50;4145652;28;20315;-70
2024/02/27 05:26:00;;;;;;;24.10;14.90;;;;;;;8.94;64.29;99230.03;4136752;28;20030;-71
2024/02/27 05:28:00;;;;;;;21.50;14.32;;;;;;;9.08;63.75;99233.97;4139297;28;21001;-72
2024/02/27 05:30:05;;;;;;;23.40;16.13;;;;;;;9.07;63.98;99235.78;4141810;28;20057;-69
2024/02/27 05:32:05;;;;;;;21.65;15.88;;;;;;;8.99;64.29;99238.41;4141945;28;20034;-69
2024/02/27 05:34:07;;;;;;;21.20;14.95;;;;;;;8.94;64.30;99243.38;4141982;28;20028;-70
2024/02/27 05:36:07;;;;;;;21.50;15.32;;;;;;;8.95;64.09;99242.38;4140746;28;20022;-71
2024/02/27 05:38:08;;;;;;;18.98;13.63;;;;;;;8.98;63.91;99242.91;4141287;28;20027;-72
2024/02/27 05:40:12;;;;;;;20.63;14.02;;;;;;;8.99;63.71;99241.06;4146502;28;20026;-72
2024/02/27 05:42:13;;;;;;;21.67;14.13;;;;;;;8.91;63.69;99239.19;4134713;28;20078;-70
2024/02/27 05:44:14;;;;;;;21.90;14.45;;;;;;;8.90;63.56;99251.66;4132029;28;20123;-71
2024/02/27 05:46:15;;;;;;;22.73;15.75;;;;;;;9.07;63.05;99257.13;4130489;28;20030;-72
2024/02/27 05:48:15;;;;;;;20.75;13.77;;;;;;;9.08;63.08;99258.81;4131684;28;20032;-71
2024/02/27 05:50:16;;;;;;;18.23;12.98;;;;;;;9.05;62.99;99262.63;4131751;28;20026;-71
2024/02/27 05:52:16;;;;;;;19.33;13.87;;;;;;;8.94;63.17;99262.84;4131386;28;20041;-71
2024/02/27 05:54:16;;;;;;;18.07;12.83;;;;;;;9.08;62.72;99258.81;4130214;28;20270;-72
2024/02/27 05:56:20;;;;;;;19.45;12.93;;;;;;;9.06;62.64;99260.81;4132980;28;20467;-68
2024/02/27 05:58:23;;;;;;;20.90;13.07;;;;;;;8.94;62.68;99262.84;4135095;28;20084;-70
2024/02/27 06:00:24;;;;;;;20.27;13.18;;;;;;;8.92;62.55;99262.19;4134805;28;20490;-69
2024/02/27 06:02:24;;;;;;;20.08;11.25;;;;;;;9.06;62.40;99260.81;4133751;28;20038;-72
2024/02/27 06:04:25;;;;;;;23.20;12.90;;;;;;;9.05;62.32;99264.47;4133801;28;20669;-69
2024/02/27 06:06:25;;;;;;;16.00;11.80;;;;;;;9.24;61.83;99262.59;4134298;28;20634;-70
2024/02/27 06:08:26;;;;;;;19.00;13.48;;;;;;;9.17;61.84;99273.88;4134523;28;20037;-69
2024/02/27 06:10:27;;;;;;;17.00;12.82;;;;;;;9.17;61.80;99273.06;4133277;28;20070;-70
2024/02/27 06:12:27;;;;;;;18.30;12.38;;;;;;;9.20;61.69;99283.41;4134518;28;20034;-68
2024/02/27 06:14:29;;;;;;;17.23;11.48;;;;;;;9.15;61.72;99286.56;4134204;28;20475;-69
2024/02/27 06:16:29;;;;;;;;;;;;;;;9.02;61.86;99292.25;4133858;28;20091;-69
2024/02/27 06:18:30;;;;;;;20.13;12.43;;;;;;;9.12;61.78;99281.53;4134675;28;19968;-69
2024/02/27 06:22:50;;;;;;;15.60;10.60;;;;;;;9.32;61.34;99302.69;4134579;28;20042;-70
2024/02/27 06:24:50;;;;;;;22.35;12.82;;;;;;;9.19;61.65;99301.25;4142061;28;20026;-71
2024/02/27 06:26:52;;;;;;;21.83;13.20;;;;;;;8.99;62.21;99297.06;4146729;28;20026;-69
2024/02/27 06:28:52;;;;;;;17.95;12.90;;;;;;;9.16;61.87;99308.72;4146543;28;20109;-72
2024/02/27 06:30:55;;;;;;;19.13;12.43;;;;;;;9.30;61.43;99310.84;4148889;28;20033;-70
2024/02/27 06:32:55;;;;;;;19.38;12.27;;;;;;;9.15;61.78;99307.88;4148640;28;20053;-70
2024/02/27 06:34:57;;;;;;;18.77;12.63;;;;;;;9.26;61.67;99317.47;4147156;28;20022;-69
2024/02/27 06:36:57;;;;;;;16.75;11.60;;;;;;;9.37;61.31;99319.03;4150218;28;20257;-70
2024/02/27 06:38:57;;;;;;;21.33;14.03;;;;;;;9.01;62.27;99327.06;4150234;28;20046;-71
2024/02/27 06:40:58;;;;;;;19.75;13.52;;;;;;;9.08;62.17;99328.13;4147568;28;20273;-68
2024/02/27 06:42:58;;;;;;;20.10;13.18;;;;;;;9.12;62.11;99328.66;4134953;28;20030;-71
2024/02/27 06:44:59;;;;;;;21.02;14.18;;;;;;;8.98;62.50;99319.38;4130775;28;20028;-70
2024/02/27 06:46:59;;;;;;;18.20;13.68;;;;;;;9.11;62.44;99327.84;4132030;28;20030;-70
2024/02/27 06:49:00;;;;;;;20.35;13.48;;;;;;;9.03;62.54;99336.59;4134534;28;20535;-70
2024/02/27 06:51:05;;;;;;;21.70;15.00;;;;;;;8.93;62.95;99338.47;4134910;28;20403;-70
2024/02/27 06:53:08;;;;;;;20.58;15.52;;;;;;;8.95;62.98;99333.03;4134287;28;20026;-70
2024/02/27 06:55:08;;;;;;;21.58;13.95;;;;;;;9.21;62.43;99339.25;4143460;28;20022;-71
2024/02/27 06:57:09;;;;;;;20.40;13.65;;;;;;;8.96;62.96;99335.53;4146584;28;20061;-70
2024/02/27 06:59:09;;;;;;;21.03;13.93;;;;;;;9.21;62.51;99338.41;4137399;28;20030;-70
2024/02/27 07:01:11;;;;;;;24.45;15.00;;;;;;;9.10;62.83;99347.50;4133993;28;20030;-70
2024/02/27 07:03:12;;;;;;;22.67;14.13;;;;;;;9.05;62.86;99345.28;4134050;28;20066;-69
2024/02/27 07:05:13;;;;;;;20.50;14.02;;;;;;;9.04;62.94;99353.44;4132886;28;20046;-69
2024/02/27 07:07:13;;;;;;;22.58;14.40;;;;;;;8.93;63.28;99346.47;4131729;28;20061;-71
2024/02/27 07:09:13;;;;;;;19.55;14.93;;;;;;;9.04;63.33;99348.94;4133346;28;20026;-71
2024/02/27 07:11:14;;;;;;;20.98;14.25;;;;;;;9.10;63.01;99347.50;4132042;28;20030;-71
2024/02/27 07:13:15;;;;;;;20.35;14.35;;;;;;;9.13;63.08;99344.53;4135468;28;20026;-69
2024/02/27 07:15:16;;;;;;;;;;;;;;;9.14;63.23;99343.53;4134011;28;20030;-70
2024/02/27 07:17:20;;;;;;;19.37;13.67;;;;;;;9.17;62.87;99340.53;4138339;28;19981;-70
2024/02/27 07:19:21;;;;;;;22.67;15.25;;;;;;;9.16;62.90;99344.19;4145171;28;20029;-69
2024/02/27 07:21:21;;;;;;;26.58;17.45;;;;;;;9.01;63.55;99337.72;4139114;28;20057;-70
2024/02/27 07:23:22;;;;;;;23.85;15.90;;;;;;;9.11;63.45;99333.16;4132236;28;20022;-71
2024/02/27 07:25:22;;;;;;;24.10;16.58;;;;;;;9.07;63.58;99341.63;4141405;28;20053;-69
2024/02/27 07:27:22;;;;;;;23.20;17.27;;;;;;;9.15;63.40;99334.56;4141186;28;20257;-70
2024/02/27 07:29:23;;;;;;;24.63;16.33;;;;;;;9.27;63.08;99337.81;4142574;28;20030;-71
2024/02/27 07:31:24;;;;;;;24.73;18.10;;;;;;;9.13;63.54;99325.88;4140741;28;20750;-71
2024/02/27 07:33:25;;;;;;;26.95;17.80;;;;;;;8.98;63.93;99333.56;4142518;28;20030;-70
2024/02/27 07:35:25;;;;;;;25.83;18.38;;;;;;;9.08;63.79;99335.31;4141904;28;20113;-69
2024/02/27 07:37:26;;;;;;;23.73;17.20;;;;;;;9.13;63.54;99335.66;4140479;28;20026;-70
2024/02/27 07:39:26;;;;;;;29.02;20.02;;;;;;;8.96;64.09;99332.84;4146551;28;20137;-70
2024/02/27 07:41:26;;;;;;;25.30;18.33;;;;;;;9.07;63.85;99347.78;4147560;28;20046;-71
2024/02/27 07:43:29;;;;;;;25.17;18.00;;;;;;;8.97;64.08;99349.72;4149883;28;20030;-69
2024/02/27 07:45:31;;;;;;;27.77;18.00;;;;;;;9.11;63.93;99354.50;4150315;28;20022;-68
2024/02/27 07:47:31;;;;;;;24.67;18.27;;;;;;;9.08;63.80;99343.31;4147844;28;20034;-71
2024/02/27 07:49:32;;;;;;;31.60;19.55;;;;;;;9.06;63.95;99346.13;4147366;28;20100;-70
2024/02/27 07:51:34;;;;;;;25.48;18.92;;;;;;;9.03;63.95;99355.25;4143267;28;20494;-71
2024/02/27 07:53:34;;;;;;;28.15;18.77;;;;;;;9.08;63.94;99353.97;4134483;28;20088;-70
2024/02/27 07:55:35;;;;;;;24.38;17.65;;;;;;;9.21;63.53;99355.25;4133497;28;20031;-71
2024/02/27 07:57:35;;;;;;;26.98;18.95;;;;;;;9.32;63.39;99364.03;4136842;28;20030;-69
2024/02/27 07:59:36;;;;;;;25.35;19.30;;;;;;;9.17;63.75;99372.53;4136742;28;20033;-69
2024/02/27 08:01:36;;;;;;;23.67;17.85;;;;;;;9.27;63.38;99375.16;4136045;28;20541;-70
2024/02/27 08:03:37;;;;;;;23.05;16.70;;;;;;;9.28;63.31;99366.16;4136148;28;20097;-70
2024/02/27 08:05:38;;;;;;;26.52;19.58;;;;;;;9.21;63.73;99376.59;4136272;28;20034;-70
2024/02/27 08:07:38;;;;;;;25.10;17.73;;;;;;;9.34;63.43;99380.72;4135611;28;20056;-69
2024/02/27 08:09:38;;;;;;;28.05;19.13;;;;;;;9.30;63.53;99374.84;4136194;28;20308;-71
2024/02/27 08:11:39;;;;;;;24.73;18.27;;;;;;;9.41;63.24;99371.09;4135610;28;20085;-68
2024/02/27 08:13:39;;;;;;;28.47;18.73;;;;;;;9.30;63.44;99374.84;4134718;28;20041;-69
2024/02/27 08:15:40;;;;;;;23.90;17.33;;;;;;;9.60;62.72;99375.41;4136163;28;20262;-71
2024/02/27 08:17:40;;;;;;;23.88;17.95;;;;;;;9.43;63.22;99382.47;4136258;28;20041;-70
2024/02/27 08:19:41;;;;;;;25.90;18.30;;;;;;;9.65;62.77;99385.63;4135598;28;20049;-69
2024/02/27 08:21:41;;;;;;;23.73;16.73;;;;;;;9.90;62.06;99393.84;4134651;28;20499;-69
2024/02/27 08:23:41;;;;;;;22.75;16.25;;;;;;;9.91;61.91;99393.66;4133557;28;20065;-71
2024/02/27 08:25:42;;;;;;;23.20;16.48;;;;;;;9.91;62.08;99390.16;4132980;28;20031;-69
2024/02/27 08:27:42;;;;;;;25.67;18.48;;;;;;;9.74;62.45;99400.72;4133902;28;20104;-71
2024/02/27 08:29:43;;;;;;;26.48;17.90;;;;;;;9.89;62.12;99398.31;4132365;28;20445;-70
2024/02/27 08:31:43;;;;;;;27.40;19.38;;;;;;;9.78;62.31;99391.41;4132985;28;20029;-69
2024/02/27 08:33:44;;;;;;;26.45;19.23;;;;;;;9.70;62.49;99393.16;4133143;28;20050;-70
2024/02/27 08:35:45;;;;;;;24.90;18.20;;;;;;;9.76;62.31;99395.25;4132804;28;20470;-70
2024/02/27 08:37:45;;;;;;;24.25;18.90;;;;;;;9.77;62.28;99408.41;4132793;28;20040;-68
2024/02/27 08:39:45;;;;;;;24.30;17.95;;;;;;;10.05;61.60;99397.59;4131909;28;20022;-71
2024/02/27 08:41:46;;;;;;;29.47;19.87;;;;;;;9.80;62.09;99405.44;4132719;28;20049;-71
2024/02/27 08:43:47;;;;;;;28.10;18.93;;;;;;;9.85;62.02;99404.97;4132894;28;20274;-69
2024/02/27 08:45:47;;;;;;;29.52;19.95;;;;;;;9.89;61.93;99410.84;4132713;28;20285;-70
2024/02/27 08:47:49;;;;;;;27.60;19.25;;;;;;;9.89;61.90;99408.16;4133135;28;20034;-70
2024/02/27 08:49:49;;;;;;;28.92;20.08;;;;;;;9.77;62.07;99408.41;4132628;28;20046;-71
2024/02/27 08:51:51;;;;;;;26.90;19.25;;;;;;;9.77;61.98;99403.06;4131625;28;20483;-71
2024/02/27 08:53:51;;;;;;;25.20;18.40;;;;;;;9.93;61.68;99409.50;4133067;28;20031;-71
2024/02/27 08:55:52;;;;;;;27.60;19.15;;;;;;;9.80;61.77;99408.13;4132622;28;20668;-71
2024/02/27 08:57:52;;;;;;;31.33;20.02;;;;;;;9.88;61.86;99415.31;4132622;28;20033;-70
2024/02/27 09:00:01;;;;;;;28.17;19.88;;;;;;;9.72;62.19;99408.06;4142980;28;20033;-71
2024/02/27 09:02:05;;;;;;;26.73;19.08;;;;;;;9.84;62.02;99424.66;4152708;28;20037;-71
2024/02/27 09:04:06;;;;;;;29.15;19.83;;;;;;;9.97;61.78;99413.56;4141881;28;20125;-70
2024/02/27 09:06:09;;;;;;;27.02;18.65;;;;;;;10.07;61.46;99414.31;4132334;28;20463;-70
2024/02/27 09:08:13;;;;;;;29.23;18.80;;;;;;;10.04;61.41;99403.09;4132121;28;20038;-71
2024/02/27 09:10:14;;;;;;;28.30;19.25;;;;;;;10.07;61.24;99398.28;4132188;28;20026;-70
2024/02/27 09:12:16;;;;;;;27.52;19.67;;;;;;;10.25;61.02;99400.88;4131870;28;20033;-71
2024/02/27 09:14:17;;;;;;;27.05;19.50;;;;;;;10.11;60.88;99404.97;4132529;28;20371;-70
2024/02/27 09:16:17;;;;;;;27.67;18.95;;;;;;;10.36;60.41;99404.28;4133033;28;20113;-69
2024/02/27 09:18:18;;;;;;;26.75;19.52;;;;;;;10.37;60.47;99397.94;4133057;28;20034;-70
2024/02/27 09:20:19;;;;;;;30.45;20.05;;;;;;;10.30;60.22;99413.75;4134529;28;20498;-70
2024/02/27 09:22:19;;;;;;;27.73;20.55;;;;;;;10.33;60.52;99401.94;4133420;28;20041;-71
2024/02/27 09:24:19;;;;;;;27.95;19.85;;;;;;;10.28;60.75;99410.44;4133497;28;20085;-69
2024/02/27 09:26:20;;;;;;;28.10;18.80;;;;;;;10.26;60.70;99407.88;4133638;28;20505;-69
2024/02/27 09:28:20;;;;;;;28.58;20.52;;;;;;;10.22;60.76;99421.72;4133219;28;20387;-71